sensor_id;sensor_type;location;lat;lon;timestamp;temperature;humidity
19174;DHT22;9719;49.322;8.536;2022-07-30T00:03:33;21.80;62.00
19174;DHT22;9719;49.322;8.536;2022-07-30T00:08:35;21.70;62.20
19174;DHT22;9719;49.322;8.536;2022-07-30T00:13:37;21.60;62.20
19174;DHT22;9719;49.322;8.536;2022-07-30T00:18:41;21.50;62.20
19174;DHT22;9719;49.322;8.536;2022-07-30T00:23:42;21.50;62.30
19174;DHT22;9719;49.322;8.536;2022-07-30T00:28:44;21.50;62.40
19174;DHT22;9719;49.322;8.536;2022-07-30T00:33:48;21.50;62.20
19174;DHT22;9719;49.322;8.536;2022-07-30T00:38:50;21.50;62.60
19174;DHT22;9719;49.322;8.536;2022-07-30T00:43:52;21.50;62.80
19174;DHT22;9719;49.322;8.536;2022-07-30T00:48:55;21.40;62.80
19174;DHT22;9719;49.322;8.536;2022-07-30T00:53:57;21.40;62.80
19174;DHT22;9719;49.322;8.536;2022-07-30T00:59:00;21.30;63.10
19174;DHT22;9719;49.322;8.536;2022-07-30T01:04:04;21.30;63.50
19174;DHT22;9719;49.322;8.536;2022-07-30T01:09:10;21.10;63.50
19174;DHT22;9719;49.322;8.536;2022-07-30T01:14:12;21.00;63.30
19174;DHT22;9719;49.322;8.536;2022-07-30T01:19:20;21.00;63.40
19174;DHT22;9719;49.322;8.536;2022-07-30T01:24:40;20.90;63.90
19174;DHT22;9719;49.322;8.536;2022-07-30T01:29:45;20.80;64.10
19174;DHT22;9719;49.322;8.536;2022-07-30T01:34:49;20.60;64.50
19174;DHT22;9719;49.322;8.536;2022-07-30T01:39:52;20.50;64.70
19174;DHT22;9719;49.322;8.536;2022-07-30T01:44:56;20.40;64.90
19174;DHT22;9719;49.322;8.536;2022-07-30T01:49:59;20.30;65.10
19174;DHT22;9719;49.322;8.536;2022-07-30T01:55:04;20.30;65.10
19174;DHT22;9719;49.322;8.536;2022-07-30T02:00:10;20.00;65.00
19174;DHT22;9719;49.322;8.536;2022-07-30T02:05:12;19.80;65.80
19174;DHT22;9719;49.322;8.536;2022-07-30T02:10:18;19.70;66.10
19174;DHT22;9719;49.322;8.536;2022-07-30T02:15:26;19.50;66.60
19174;DHT22;9719;49.322;8.536;2022-07-30T02:20:30;19.40;66.90
19174;DHT22;9719;49.322;8.536;2022-07-30T02:25:34;19.40;67.00
19174;DHT22;9719;49.322;8.536;2022-07-30T02:30:43;19.30;67.40
19174;DHT22;9719;49.322;8.536;2022-07-30T02:35:47;19.30;67.50
19174;DHT22;9719;49.322;8.536;2022-07-30T02:40:52;19.30;67.70
19174;DHT22;9719;49.322;8.536;2022-07-30T02:45:57;19.20;67.50
19174;DHT22;9719;49.322;8.536;2022-07-30T02:51:00;19.00;68.00
19174;DHT22;9719;49.322;8.536;2022-07-30T02:56:05;19.00;68.20
19174;DHT22;9719;49.322;8.536;2022-07-30T03:01:14;18.90;68.60
19174;DHT22;9719;49.322;8.536;2022-07-30T03:06:17;18.90;68.70
19174;DHT22;9719;49.322;8.536;2022-07-30T03:11:21;18.80;68.60
19174;DHT22;9719;49.322;8.536;2022-07-30T03:16:25;18.70;68.90
19174;DHT22;9719;49.322;8.536;2022-07-30T03:21:31;18.70;68.80
19174;DHT22;9719;49.322;8.536;2022-07-30T03:26:35;18.50;69.00
19174;DHT22;9719;49.322;8.536;2022-07-30T03:31:40;18.40;69.40
19174;DHT22;9719;49.322;8.536;2022-07-30T03:36:42;18.30;69.60
19174;DHT22;9719;49.322;8.536;2022-07-30T03:41:45;18.20;69.80
19174;DHT22;9719;49.322;8.536;2022-07-30T03:46:49;18.20;70.10
19174;DHT22;9719;49.322;8.536;2022-07-30T03:51:53;18.10;70.30
19174;DHT22;9719;49.322;8.536;2022-07-30T03:56:56;18.00;70.20
19174;DHT22;9719;49.322;8.536;2022-07-30T04:02:01;17.90;70.50
19174;DHT22;9719;49.322;8.536;2022-07-30T04:07:03;17.90;70.70
19174;DHT22;9719;49.322;8.536;2022-07-30T04:12:06;17.80;70.90
19174;DHT22;9719;49.322;8.536;2022-07-30T04:17:12;17.80;70.90
19174;DHT22;9719;49.322;8.536;2022-07-30T04:22:20;17.80;71.30
19174;DHT22;9719;49.322;8.536;2022-07-30T04:27:24;17.80;71.50
19174;DHT22;9719;49.322;8.536;2022-07-30T04:32:28;17.80;71.60
19174;DHT22;9719;49.322;8.536;2022-07-30T04:37:30;17.80;71.90
19174;DHT22;9719;49.322;8.536;2022-07-30T04:42:32;18.00;72.00
19174;DHT22;9719;49.322;8.536;2022-07-30T04:47:35;18.20;72.10
19174;DHT22;9719;49.322;8.536;2022-07-30T04:52:37;18.30;72.10
19174;DHT22;9719;49.322;8.536;2022-07-30T04:57:41;18.40;72.00
19174;DHT22;9719;49.322;8.536;2022-07-30T05:02:45;18.50;71.80
19174;DHT22;9719;49.322;8.536;2022-07-30T05:07:47;18.60;71.80
19174;DHT22;9719;49.322;8.536;2022-07-30T05:12:49;18.80;71.50
19174;DHT22;9719;49.322;8.536;2022-07-30T05:17:53;18.80;71.30
19174;DHT22;9719;49.322;8.536;2022-07-30T05:22:55;19.10;71.30
19174;DHT22;9719;49.322;8.536;2022-07-30T05:27:56;19.30;71.20
19174;DHT22;9719;49.322;8.536;2022-07-30T05:33:00;19.50;71.10
19174;DHT22;9719;49.322;8.536;2022-07-30T05:38:02;19.70;70.90
19174;DHT22;9719;49.322;8.536;2022-07-30T05:43:04;19.90;70.60
19174;DHT22;9719;49.322;8.536;2022-07-30T05:48:07;20.10;70.40
19174;DHT22;9719;49.322;8.536;2022-07-30T05:53:09;20.10;70.10
19174;DHT22;9719;49.322;8.536;2022-07-30T05:58:11;20.70;70.10
19174;DHT22;9719;49.322;8.536;2022-07-30T06:03:15;20.90;69.80
19174;DHT22;9719;49.322;8.536;2022-07-30T06:08:43;21.00;69.30
19174;DHT22;9719;49.322;8.536;2022-07-30T06:13:47;21.20;69.10
19174;DHT22;9719;49.322;8.536;2022-07-30T06:18:50;21.30;68.50
19174;DHT22;9719;49.322;8.536;2022-07-30T06:23:52;21.50;68.20
19174;DHT22;9719;49.322;8.536;2022-07-30T06:28:54;21.70;67.90
19174;DHT22;9719;49.322;8.536;2022-07-30T06:33:58;22.60;67.50
19174;DHT22;9719;49.322;8.536;2022-07-30T06:39:00;22.10;66.40
19174;DHT22;9719;49.322;8.536;2022-07-30T06:44:02;22.40;66.20
19174;DHT22;9719;49.322;8.536;2022-07-30T06:49:06;22.50;65.60
19174;DHT22;9719;49.322;8.536;2022-07-30T06:54:08;22.80;65.00
19174;DHT22;9719;49.322;8.536;2022-07-30T06:59:10;22.90;64.20
19174;DHT22;9719;49.322;8.536;2022-07-30T07:04:13;23.00;63.70
19174;DHT22;9719;49.322;8.536;2022-07-30T07:09:15;23.20;63.10
19174;DHT22;9719;49.322;8.536;2022-07-30T07:14:17;23.40;62.80
19174;DHT22;9719;49.322;8.536;2022-07-30T07:19:20;23.50;62.40
19174;DHT22;9719;49.322;8.536;2022-07-30T07:24:23;23.60;62.20
19174;DHT22;9719;49.322;8.536;2022-07-30T07:29:25;23.80;61.80
19174;DHT22;9719;49.322;8.536;2022-07-30T07:34:29;24.00;61.20
19174;DHT22;9719;49.322;8.536;2022-07-30T07:39:30;24.20;60.50
19174;DHT22;9719;49.322;8.536;2022-07-30T07:44:32;24.30;60.00
19174;DHT22;9719;49.322;8.536;2022-07-30T07:49:36;24.40;59.40
19174;DHT22;9719;49.322;8.536;2022-07-30T07:54:38;24.60;58.90
19174;DHT22;9719;49.322;8.536;2022-07-30T07:59:39;24.60;58.30
19174;DHT22;9719;49.322;8.536;2022-07-30T08:04:43;24.70;58.10
19174;DHT22;9719;49.322;8.536;2022-07-30T08:09:46;24.80;57.70
19174;DHT22;9719;49.322;8.536;2022-07-30T08:14:48;25.00;57.50
19174;DHT22;9719;49.322;8.536;2022-07-30T08:19:51;25.10;56.40
19174;DHT22;9719;49.322;8.536;2022-07-30T08:24:53;25.20;56.20
19174;DHT22;9719;49.322;8.536;2022-07-30T08:29:56;25.30;55.60
19174;DHT22;9719;49.322;8.536;2022-07-30T08:34:59;25.50;54.90
19174;DHT22;9719;49.322;8.536;2022-07-30T08:40:02;25.60;55.00
19174;DHT22;9719;49.322;8.536;2022-07-30T08:45:06;25.80;54.50
19174;DHT22;9719;49.322;8.536;2022-07-30T08:50:11;26.00;54.10
19174;DHT22;9719;49.322;8.536;2022-07-30T08:55:14;26.10;54.00
19174;DHT22;9719;49.322;8.536;2022-07-30T09:00:17;26.40;53.20
19174;DHT22;9719;49.322;8.536;2022-07-30T09:05:21;26.60;52.60
19174;DHT22;9719;49.322;8.536;2022-07-30T09:10:23;26.90;51.00
19174;DHT22;9719;49.322;8.536;2022-07-30T09:15:25;27.00;51.10
19174;DHT22;9719;49.322;8.536;2022-07-30T09:20:31;27.10;50.30
19174;DHT22;9719;49.322;8.536;2022-07-30T09:25:35;27.30;49.80
19174;DHT22;9719;49.322;8.536;2022-07-30T09:30:46;27.40;49.80
19174;DHT22;9719;49.322;8.536;2022-07-30T09:35:54;27.80;49.30
19174;DHT22;9719;49.322;8.536;2022-07-30T09:40:57;28.30;48.80
19174;DHT22;9719;49.322;8.536;2022-07-30T09:45:59;28.60;47.50
19174;DHT22;9719;49.322;8.536;2022-07-30T09:51:04;28.80;46.50
19174;DHT22;9719;49.322;8.536;2022-07-30T09:56:22;30.20;45.50
19174;DHT22;9719;49.322;8.536;2022-07-30T10:01:24;31.90;43.20
19174;DHT22;9719;49.322;8.536;2022-07-30T10:06:33;32.40;40.70
19174;DHT22;9719;49.322;8.536;2022-07-30T10:11:35;32.20;41.00
19174;DHT22;9719;49.322;8.536;2022-07-30T10:16:38;33.60;39.10
19174;DHT22;9719;49.322;8.536;2022-07-30T10:21:41;35.30;36.20
19174;DHT22;9719;49.322;8.536;2022-07-30T10:26:45;36.20;33.60
19174;DHT22;9719;49.322;8.536;2022-07-30T10:31:48;36.80;32.20
19174;DHT22;9719;49.322;8.536;2022-07-30T10:36:55;36.70;30.70
19174;DHT22;9719;49.322;8.536;2022-07-30T10:42:10;35.80;30.50
19174;DHT22;9719;49.322;8.536;2022-07-30T10:47:17;34.90;31.30
19174;DHT22;9719;49.322;8.536;2022-07-30T10:52:41;34.50;31.80
19174;DHT22;9719;49.322;8.536;2022-07-30T10:57:57;33.80;32.20
19174;DHT22;9719;49.322;8.536;2022-07-30T11:03:17;33.00;32.10
19174;DHT22;9719;49.322;8.536;2022-07-30T11:08:39;32.20;33.40
19174;DHT22;9719;49.322;8.536;2022-07-30T11:13:52;31.80;33.90
19174;DHT22;9719;49.322;8.536;2022-07-30T11:19:08;31.80;33.50
19174;DHT22;9719;49.322;8.536;2022-07-30T11:29:50;32.00;33.80
19174;DHT22;9719;49.322;8.536;2022-07-30T11:35:14;32.20;33.50
19174;DHT22;9719;49.322;8.536;2022-07-30T11:40:17;32.20;33.50
19174;DHT22;9719;49.322;8.536;2022-07-30T11:45:22;32.30;32.40
19174;DHT22;9719;49.322;8.536;2022-07-30T11:50:29;32.00;32.20
19174;DHT22;9719;49.322;8.536;2022-07-30T11:55:32;31.60;32.60
19174;DHT22;9719;49.322;8.536;2022-07-30T12:00:38;31.20;33.00
19174;DHT22;9719;49.322;8.536;2022-07-30T12:05:41;31.20;32.70
19174;DHT22;9719;49.322;8.536;2022-07-30T12:10:54;31.20;33.10
19174;DHT22;9719;49.322;8.536;2022-07-30T12:15:58;31.10;33.40
19174;DHT22;9719;49.322;8.536;2022-07-30T12:21:02;31.30;33.40
19174;DHT22;9719;49.322;8.536;2022-07-30T12:26:04;31.70;32.70
19174;DHT22;9719;49.322;8.536;2022-07-30T12:31:08;31.80;31.80
19174;DHT22;9719;49.322;8.536;2022-07-30T12:36:22;32.00;32.50
19174;DHT22;9719;49.322;8.536;2022-07-30T12:41:40;32.10;31.50
19174;DHT22;9719;49.322;8.536;2022-07-30T12:46:44;32.00;31.40
19174;DHT22;9719;49.322;8.536;2022-07-30T12:51:50;31.80;30.40
19174;DHT22;9719;49.322;8.536;2022-07-30T12:56:57;31.80;30.90
19174;DHT22;9719;49.322;8.536;2022-07-30T13:02:01;31.60;31.40
19174;DHT22;9719;49.322;8.536;2022-07-30T13:07:06;31.40;31.90
19174;DHT22;9719;49.322;8.536;2022-07-30T13:12:11;31.30;31.90
19174;DHT22;9719;49.322;8.536;2022-07-30T13:17:17;31.40;31.30
19174;DHT22;9719;49.322;8.536;2022-07-30T13:22:19;31.70;31.70
19174;DHT22;9719;49.322;8.536;2022-07-30T13:27:21;31.70;30.40
19174;DHT22;9719;49.322;8.536;2022-07-30T13:32:24;31.50;30.50
19174;DHT22;9719;49.322;8.536;2022-07-30T13:37:27;31.20;30.40
19174;DHT22;9719;49.322;8.536;2022-07-30T13:42:29;30.90;30.60
19174;DHT22;9719;49.322;8.536;2022-07-30T13:47:32;30.80;30.90
19174;DHT22;9719;49.322;8.536;2022-07-30T13:52:34;30.80;30.60
19174;DHT22;9719;49.322;8.536;2022-07-30T13:57:36;30.80;30.50
19174;DHT22;9719;49.322;8.536;2022-07-30T14:02:39;30.60;30.60
19174;DHT22;9719;49.322;8.536;2022-07-30T14:07:42;30.50;30.90
19174;DHT22;9719;49.322;8.536;2022-07-30T14:12:44;30.60;31.40
19174;DHT22;9719;49.322;8.536;2022-07-30T14:17:47;30.70;31.40
19174;DHT22;9719;49.322;8.536;2022-07-30T14:22:49;31.00;31.40
19174;DHT22;9719;49.322;8.536;2022-07-30T14:27:51;31.00;30.80
19174;DHT22;9719;49.322;8.536;2022-07-30T14:32:54;30.80;30.20
19174;DHT22;9719;49.322;8.536;2022-07-30T14:37:56;31.60;31.00
19174;DHT22;9719;49.322;8.536;2022-07-30T14:42:58;30.80;30.90
19174;DHT22;9719;49.322;8.536;2022-07-30T14:48:02;30.60;30.70
19174;DHT22;9719;49.322;8.536;2022-07-30T14:53:04;30.50;30.80
19174;DHT22;9719;49.322;8.536;2022-07-30T14:58:06;30.30;31.40
19174;DHT22;9719;49.322;8.536;2022-07-30T15:03:09;30.10;31.10
19174;DHT22;9719;49.322;8.536;2022-07-30T15:08:12;30.00;31.60
19174;DHT22;9719;49.322;8.536;2022-07-30T15:13:14;30.00;31.80
19174;DHT22;9719;49.322;8.536;2022-07-30T15:18:17;30.30;32.30
19174;DHT22;9719;49.322;8.536;2022-07-30T15:23:19;30.60;31.30
19174;DHT22;9719;49.322;8.536;2022-07-30T15:28:21;30.60;30.40
19174;DHT22;9719;49.322;8.536;2022-07-30T15:33:24;30.50;30.50
19174;DHT22;9719;49.322;8.536;2022-07-30T15:38:26;30.50;30.60
19174;DHT22;9719;49.322;8.536;2022-07-30T15:43:29;30.50;30.20
19174;DHT22;9719;49.322;8.536;2022-07-30T15:48:32;30.60;29.50
19174;DHT22;9719;49.322;8.536;2022-07-30T15:53:34;30.80;28.70
19174;DHT22;9719;49.322;8.536;2022-07-30T15:58:36;30.90;28.40
19174;DHT22;9719;49.322;8.536;2022-07-30T16:03:39;30.80;27.70
19174;DHT22;9719;49.322;8.536;2022-07-30T16:08:41;30.90;27.80
19174;DHT22;9719;49.322;8.536;2022-07-30T16:13:43;31.00;27.50
19174;DHT22;9719;49.322;8.536;2022-07-30T16:18:47;31.10;27.50
19174;DHT22;9719;49.322;8.536;2022-07-30T16:23:49;31.20;26.70
19174;DHT22;9719;49.322;8.536;2022-07-30T16:28:51;31.20;26.10
19174;DHT22;9719;49.322;8.536;2022-07-30T16:33:55;31.20;26.30
19174;DHT22;9719;49.322;8.536;2022-07-30T16:38:57;31.10;26.20
19174;DHT22;9719;49.322;8.536;2022-07-30T16:43:59;31.20;26.10
19174;DHT22;9719;49.322;8.536;2022-07-30T16:49:02;31.20;25.30
19174;DHT22;9719;49.322;8.536;2022-07-30T16:54:04;31.10;25.40
19174;DHT22;9719;49.322;8.536;2022-07-30T16:59:07;31.10;26.10
19174;DHT22;9719;49.322;8.536;2022-07-30T17:04:10;31.10;25.40
19174;DHT22;9719;49.322;8.536;2022-07-30T17:09:12;31.00;25.50
19174;DHT22;9719;49.322;8.536;2022-07-30T17:14:14;30.90;25.00
19174;DHT22;9719;49.322;8.536;2022-07-30T17:19:17;30.70;25.50
19174;DHT22;9719;49.322;8.536;2022-07-30T17:24:19;30.50;26.10
19174;DHT22;9719;49.322;8.536;2022-07-30T17:29:21;30.30;26.20
19174;DHT22;9719;49.322;8.536;2022-07-30T17:34:25;30.10;26.60
19174;DHT22;9719;49.322;8.536;2022-07-30T17:39:34;29.80;26.40
19174;DHT22;9719;49.322;8.536;2022-07-30T17:44:36;29.70;26.80
19174;DHT22;9719;49.322;8.536;2022-07-30T17:49:40;29.60;27.00
19174;DHT22;9719;49.322;8.536;2022-07-30T17:54:42;29.40;27.50
19174;DHT22;9719;49.322;8.536;2022-07-30T17:59:44;29.40;27.50
19174;DHT22;9719;49.322;8.536;2022-07-30T18:04:47;29.30;28.10
19174;DHT22;9719;49.322;8.536;2022-07-30T18:09:49;29.20;28.80
19174;DHT22;9719;49.322;8.536;2022-07-30T18:14:51;29.20;28.80
19174;DHT22;9719;49.322;8.536;2022-07-30T18:19:54;29.10;29.30
19174;DHT22;9719;49.322;8.536;2022-07-30T18:24:56;29.00;29.80
19174;DHT22;9719;49.322;8.536;2022-07-30T18:29:59;28.90;29.20
19174;DHT22;9719;49.322;8.536;2022-07-30T18:35:03;28.80;29.40
19174;DHT22;9719;49.322;8.536;2022-07-30T18:40:06;28.70;29.70
19174;DHT22;9719;49.322;8.536;2022-07-30T18:45:09;28.50;30.10
19174;DHT22;9719;49.322;8.536;2022-07-30T18:50:15;28.50;30.40
19174;DHT22;9719;49.322;8.536;2022-07-30T18:55:17;28.30;30.80
19174;DHT22;9719;49.322;8.536;2022-07-30T19:00:20;28.10;30.70
19174;DHT22;9719;49.322;8.536;2022-07-30T19:05:26;28.00;31.50
19174;DHT22;9719;49.322;8.536;2022-07-30T19:10:28;27.90;30.80
19174;DHT22;9719;49.322;8.536;2022-07-30T19:15:30;27.80;31.10
19174;DHT22;9719;49.322;8.536;2022-07-30T19:20:33;27.60;31.00
19174;DHT22;9719;49.322;8.536;2022-07-30T19:25:36;27.40;31.40
19174;DHT22;9719;49.322;8.536;2022-07-30T19:30:38;27.30;31.60
19174;DHT22;9719;49.322;8.536;2022-07-30T19:35:42;27.10;31.60
19174;DHT22;9719;49.322;8.536;2022-07-30T19:40:45;27.10;31.90
19174;DHT22;9719;49.322;8.536;2022-07-30T19:45:48;26.80;31.40
19174;DHT22;9719;49.322;8.536;2022-07-30T19:50:51;26.70;31.50
19174;DHT22;9719;49.322;8.536;2022-07-30T19:55:53;26.60;31.80
19174;DHT22;9719;49.322;8.536;2022-07-30T20:00:56;26.50;32.00
19174;DHT22;9719;49.322;8.536;2022-07-30T20:05:59;26.40;32.10
19174;DHT22;9719;49.322;8.536;2022-07-30T20:11:02;26.40;32.20
19174;DHT22;9719;49.322;8.536;2022-07-30T20:16:06;26.20;32.50
19174;DHT22;9719;49.322;8.536;2022-07-30T20:21:13;26.20;32.70
19174;DHT22;9719;49.322;8.536;2022-07-30T20:26:21;26.10;34.00
19174;DHT22;9719;49.322;8.536;2022-07-30T20:31:23;26.00;33.80
19174;DHT22;9719;49.322;8.536;2022-07-30T20:36:26;25.90;33.60
19174;DHT22;9719;49.322;8.536;2022-07-30T20:41:28;25.70;34.20
19174;DHT22;9719;49.322;8.536;2022-07-30T20:46:30;25.60;34.70
19174;DHT22;9719;49.322;8.536;2022-07-30T20:51:36;25.40;34.90
19174;DHT22;9719;49.322;8.536;2022-07-30T20:56:41;25.20;35.40
19174;DHT22;9719;49.322;8.536;2022-07-30T21:01:43;25.00;35.50
19174;DHT22;9719;49.322;8.536;2022-07-30T21:06:46;24.80;35.80
19174;DHT22;9719;49.322;8.536;2022-07-30T21:11:50;24.70;36.30
19174;DHT22;9719;49.322;8.536;2022-07-30T21:16:52;24.50;37.00
19174;DHT22;9719;49.322;8.536;2022-07-30T21:21:55;24.40;36.90
19174;DHT22;9719;49.322;8.536;2022-07-30T21:26:57;24.20;37.20
19174;DHT22;9719;49.322;8.536;2022-07-30T21:31:59;24.20;37.60
19174;DHT22;9719;49.322;8.536;2022-07-30T21:37:02;24.10;38.00
19174;DHT22;9719;49.322;8.536;2022-07-30T21:42:04;24.20;38.50
19174;DHT22;9719;49.322;8.536;2022-07-30T21:47:06;24.20;38.40
19174;DHT22;9719;49.322;8.536;2022-07-30T21:52:10;24.20;38.30
19174;DHT22;9719;49.322;8.536;2022-07-30T21:57:12;24.20;39.70
19174;DHT22;9719;49.322;8.536;2022-07-30T22:02:14;24.10;40.00
19174;DHT22;9719;49.322;8.536;2022-07-30T22:07:19;24.10;39.90
19174;DHT22;9719;49.322;8.536;2022-07-30T22:12:21;24.00;40.00
19174;DHT22;9719;49.322;8.536;2022-07-30T22:17:23;24.00;40.60
19174;DHT22;9719;49.322;8.536;2022-07-30T22:22:26;23.90;41.10
19174;DHT22;9719;49.322;8.536;2022-07-30T22:27:28;23.80;40.90
19174;DHT22;9719;49.322;8.536;2022-07-30T22:32:30;23.70;41.60
19174;DHT22;9719;49.322;8.536;2022-07-30T22:37:34;23.60;41.90
19174;DHT22;9719;49.322;8.536;2022-07-30T22:42:36;23.50;42.00
19174;DHT22;9719;49.322;8.536;2022-07-30T22:47:38;23.40;42.10
19174;DHT22;9719;49.322;8.536;2022-07-30T22:52:41;23.30;42.20
19174;DHT22;9719;49.322;8.536;2022-07-30T22:57:43;23.10;42.80
19174;DHT22;9719;49.322;8.536;2022-07-30T23:02:46;23.20;43.00
19174;DHT22;9719;49.322;8.536;2022-07-30T23:07:50;23.10;43.50
19174;DHT22;9719;49.322;8.536;2022-07-30T23:12:52;23.10;44.10
19174;DHT22;9719;49.322;8.536;2022-07-30T23:17:54;23.00;43.90
19174;DHT22;9719;49.322;8.536;2022-07-30T23:22:57;23.00;44.30
19174;DHT22;9719;49.322;8.536;2022-07-30T23:28:01;22.90;44.50
19174;DHT22;9719;49.322;8.536;2022-07-30T23:33:03;22.90;45.00
19174;DHT22;9719;49.322;8.536;2022-07-30T23:38:06;22.80;44.90
19174;DHT22;9719;49.322;8.536;2022-07-30T23:43:08;22.80;45.10
19174;DHT22;9719;49.322;8.536;2022-07-30T23:48:10;22.70;45.30
19174;DHT22;9719;49.322;8.536;2022-07-30T23:53:14;22.60;46.00
19174;DHT22;9719;49.322;8.536;2022-07-30T23:58:16;22.50;46.40
